sensor_id;sensor_type;location;lat;lon;timestamp;pressure;altitude;pressure_sealevel;temperature;humidity
12360;BME280;6244;51.460;7.090;2024-02-15T00:01:22;100745.28;;;10.59;100.00
12360;BME280;6244;51.460;7.090;2024-02-15T00:06:19;100744.44;;;10.59;100.00
12360;BME280;6244;51.460;7.090;2024-02-15T00:11:17;100743.53;;;10.60;100.00
12360;BME280;6244;51.460;7.090;2024-02-15T00:16:14;100745.28;;;10.59;100.00
12360;BME280;6244;51.460;7.090;2024-02-15T00:21:11;100754.03;;;10.60;100.00
12360;BME280;6244;51.460;7.090;2024-02-15T00:26:07;100757.66;;;10.57;100.00
12360;BME280;6244;51.460;7.090;2024-02-15T00:31:06;100747.91;;;10.59;100.00
12360;BME280;6244;51.460;7.090;2024-02-15T00:36:03;100750.38;;;10.63;100.00
12360;BME280;6244;51.460;7.090;2024-02-15T00:41:00;100754.03;;;10.60;100.00
12360;BME280;6244;51.460;7.090;2024-02-15T00:45:57;100751.41;;;10.60;100.00
12360;BME280;6244;51.460;7.090;2024-02-15T00:50:55;100761.03;;;10.59;100.00
12360;BME280;6244;51.460;7.090;2024-02-15T00:55:53;100760.03;;;10.62;100.00
12360;BME280;6244;51.460;7.090;2024-02-15T01:00:49;100757.41;;;10.62;100.00
12360;BME280;6244;51.460;7.090;2024-02-15T01:05:46;100754.72;;;10.64;100.00
12360;BME280;6244;51.460;7.090;2024-02-15T01:10:44;100757.25;;;10.65;100.00
12360;BME280;6244;51.460;7.090;2024-02-15T01:15:41;100761.53;;;10.68;100.00
12360;BME280;6244;51.460;7.090;2024-02-15T01:20:37;100755.19;;;10.72;100.00
12360;BME280;6244;51.460;7.090;2024-02-15T01:25:34;100749.16;;;10.70;100.00
12360;BME280;6244;51.460;7.090;2024-02-15T01:30:32;100749.84;;;10.73;100.00
12360;BME280;6244;51.460;7.090;2024-02-15T01:35:28;100749.00;;;10.73;100.00
12360;BME280;6244;51.460;7.090;2024-02-15T01:40:25;100753.31;;;10.74;100.00
12360;BME280;6244;51.460;7.090;2024-02-15T01:45:21;100743.00;;;10.71;100.00
12360;BME280;6244;51.460;7.090;2024-02-15T01:50:19;100736.81;;;10.72;100.00
12360;BME280;6244;51.460;7.090;2024-02-15T01:55:17;100736.03;;;10.70;100.00
12360;BME280;6244;51.460;7.090;2024-02-15T02:00:17;100742.84;;;10.74;100.00
12360;BME280;6244;51.460;7.090;2024-02-15T02:05:14;100727.16;;;10.72;100.00
12360;BME280;6244;51.460;7.090;2024-02-15T02:10:12;100726.31;;;10.72;100.00
12360;BME280;6244;51.460;7.090;2024-02-15T02:15:09;100725.38;;;10.73;100.00
12360;BME280;6244;51.460;7.090;2024-02-15T02:20:07;100712.25;;;10.73;100.00
12360;BME280;6244;51.460;7.090;2024-02-15T02:25:08;100714.13;;;10.71;100.00
12360;BME280;6244;51.460;7.090;2024-02-15T02:30:13;100710.50;;;10.73;100.00
12360;BME280;6244;51.460;7.090;2024-02-15T02:35:12;100699.69;;;10.79;100.00
12360;BME280;6244;51.460;7.090;2024-02-15T02:40:12;100696.13;;;10.80;100.00
12360;BME280;6244;51.460;7.090;2024-02-15T02:45:09;100690.09;;;10.78;100.00
12360;BME280;6244;51.460;7.090;2024-02-15T02:50:06;100693.34;;;10.83;100.00
12360;BME280;6244;51.460;7.090;2024-02-15T02:55:04;100681.31;;;10.79;100.00
12360;BME280;6244;51.460;7.090;2024-02-15T03:00:05;100678.75;;;10.78;100.00
12360;BME280;6244;51.460;7.090;2024-02-15T03:05:03;100670.50;;;10.85;100.00
12360;BME280;6244;51.460;7.090;2024-02-15T03:10:01;100670.56;;;10.84;100.00
12360;BME280;6244;51.460;7.090;2024-02-15T03:15:06;100661.75;;;10.85;100.00
12360;BME280;6244;51.460;7.090;2024-02-15T03:20:07;100665.16;;;10.87;100.00
12360;BME280;6244;51.460;7.090;2024-02-15T03:25:07;100663.28;;;10.89;100.00
12360;BME280;6244;51.460;7.090;2024-02-15T03:30:06;100669.38;;;10.89;100.00
12360;BME280;6244;51.460;7.090;2024-02-15T03:35:04;100663.16;;;10.92;100.00
12360;BME280;6244;51.460;7.090;2024-02-15T03:40:02;100661.81;;;11.01;100.00
12360;BME280;6244;51.460;7.090;2024-02-15T03:44:59;100641.56;;;11.03;100.00
12360;BME280;6244;51.460;7.090;2024-02-15T03:49:57;100645.75;;;11.07;100.00
12360;BME280;6244;51.460;7.090;2024-02-15T03:54:53;100657.75;;;11.11;100.00
12360;BME280;6244;51.460;7.090;2024-02-15T03:59:50;100654.03;;;11.15;100.00
12360;BME280;6244;51.460;7.090;2024-02-15T04:04:47;100663.56;;;11.17;100.00
12360;BME280;6244;51.460;7.090;2024-02-15T04:09:46;100652.88;;;11.21;100.00
12360;BME280;6244;51.460;7.090;2024-02-15T04:14:42;100651.50;;;11.13;100.00
12360;BME280;6244;51.460;7.090;2024-02-15T04:19:40;100647.94;;;11.14;100.00
12360;BME280;6244;51.460;7.090;2024-02-15T04:24:36;100646.25;;;11.13;100.00
12360;BME280;6244;51.460;7.090;2024-02-15T04:29:36;100639.06;;;11.17;100.00
12360;BME280;6244;51.460;7.090;2024-02-15T04:34:35;100646.31;;;11.12;100.00
12360;BME280;6244;51.460;7.090;2024-02-15T04:39:32;100644.31;;;11.17;100.00
12360;BME280;6244;51.460;7.090;2024-02-15T04:44:28;100646.31;;;11.12;100.00
12360;BME280;6244;51.460;7.090;2024-02-15T04:49:26;100642.84;;;11.11;100.00
12360;BME280;6244;51.460;7.090;2024-02-15T04:54:24;100645.16;;;11.17;100.00
12360;BME280;6244;51.460;7.090;2024-02-15T04:59:21;100644.38;;;11.15;100.00
12360;BME280;6244;51.460;7.090;2024-02-15T05:04:20;100639.47;;;11.09;100.00
12360;BME280;6244;51.460;7.090;2024-02-15T05:09:19;100638.63;;;11.09;100.00
12360;BME280;6244;51.460;7.090;2024-02-15T05:14:16;100630.75;;;11.09;100.00
12360;BME280;6244;51.460;7.090;2024-02-15T05:19:14;100629.13;;;11.06;100.00
12360;BME280;6244;51.460;7.090;2024-02-15T05:24:12;100621.66;;;10.99;100.00
12360;BME280;6244;51.460;7.090;2024-02-15T05:29:10;100622.50;;;10.99;100.00
12360;BME280;6244;51.460;7.090;2024-02-15T05:34:07;100624.66;;;11.08;100.00
12360;BME280;6244;51.460;7.090;2024-02-15T05:39:06;100624.56;;;11.10;100.00
12360;BME280;6244;51.460;7.090;2024-02-15T05:44:03;100636.09;;;11.07;100.00
12360;BME280;6244;51.460;7.090;2024-02-15T05:49:03;100631.84;;;11.05;100.00
12360;BME280;6244;51.460;7.090;2024-02-15T05:54:00;100630.47;;;11.13;100.00
12360;BME280;6244;51.460;7.090;2024-02-15T05:58:57;100623.31;;;11.17;100.00
12360;BME280;6244;51.460;7.090;2024-02-15T06:03:54;100624.84;;;11.21;100.00
12360;BME280;6244;51.460;7.090;2024-02-15T06:08:52;100623.38;;;11.15;100.00
12360;BME280;6244;51.460;7.090;2024-02-15T06:13:53;100633.97;;;11.14;100.00
12360;BME280;6244;51.460;7.090;2024-02-15T06:18:49;100624.31;;;11.14;100.00
12360;BME280;6244;51.460;7.090;2024-02-15T06:23:46;100621.34;;;11.05;100.00
12360;BME280;6244;51.460;7.090;2024-02-15T06:28:45;100623.97;;;11.05;100.00
12360;BME280;6244;51.460;7.090;2024-02-15T06:33:59;100626.66;;;11.03;100.00
12360;BME280;6244;51.460;7.090;2024-02-15T06:39:13;100635.41;;;11.04;100.00
12360;BME280;6244;51.460;7.090;2024-02-15T06:44:25;100627.59;;;11.02;100.00
12360;BME280;6244;51.460;7.090;2024-02-15T06:49:21;100633.00;;;10.99;100.00
12360;BME280;6244;51.460;7.090;2024-02-15T06:54:18;100628.78;;;10.97;100.00
12360;BME280;6244;51.460;7.090;2024-02-15T06:59:14;100627.75;;;10.99;100.00
12360;BME280;6244;51.460;7.090;2024-02-15T07:04:13;100629.28;;;11.03;100.00
12360;BME280;6244;51.460;7.090;2024-02-15T07:09:09;100637.09;;;11.05;100.00
12360;BME280;6244;51.460;7.090;2024-02-15T07:14:06;100637.00;;;11.06;100.00
12360;BME280;6244;51.460;7.090;2024-02-15T07:19:04;100636.91;;;10.92;100.00
12360;BME280;6244;51.460;7.090;2024-02-15T07:24:04;100619.69;;;10.86;100.00
12360;BME280;6244;51.460;7.090;2024-02-15T07:29:01;100622.22;;;10.88;100.00
12360;BME280;6244;51.460;7.090;2024-02-15T07:34:01;100617.91;;;10.87;100.00
12360;BME280;6244;51.460;7.090;2024-02-15T07:38:58;100609.09;;;10.88;100.00
12360;BME280;6244;51.460;7.090;2024-02-15T07:43:57;100604.00;;;10.85;100.00
12360;BME280;6244;51.460;7.090;2024-02-15T07:48:54;100590.44;;;10.77;100.00
12360;BME280;6244;51.460;7.090;2024-02-15T07:53:51;100599.94;;;10.79;100.00
12360;BME280;6244;51.460;7.090;2024-02-15T07:58:48;100620.53;;;10.87;100.00
12360;BME280;6244;51.460;7.090;2024-02-15T08:03:48;100616.28;;;10.84;100.00
12360;BME280;6244;51.460;7.090;2024-02-15T08:08:46;100607.81;;;10.79;100.00
12360;BME280;6244;51.460;7.090;2024-02-15T08:13:43;100603.66;;;10.75;100.00
12360;BME280;6244;51.460;7.090;2024-02-15T08:18:40;100601.94;;;10.74;100.00
12360;BME280;6244;51.460;7.090;2024-02-15T08:23:38;100599.06;;;10.79;100.00
12360;BME280;6244;51.460;7.090;2024-02-15T08:28:35;100610.44;;;10.79;100.00
12360;BME280;6244;51.460;7.090;2024-02-15T08:33:31;100612.19;;;10.79;100.00
12360;BME280;6244;51.460;7.090;2024-02-15T08:38:28;100607.75;;;10.81;100.00
12360;BME280;6244;51.460;7.090;2024-02-15T08:43:26;100600.09;;;10.76;100.00
12360;BME280;6244;51.460;7.090;2024-02-15T08:48:22;100613.13;;;10.78;100.00
12360;BME280;6244;51.460;7.090;2024-02-15T08:53:19;100596.78;;;10.73;100.00
12360;BME280;6244;51.460;7.090;2024-02-15T08:58:16;100598.66;;;10.71;100.00
12360;BME280;6244;51.460;7.090;2024-02-15T09:03:14;100588.91;;;10.73;100.00
12360;BME280;6244;51.460;7.090;2024-02-15T09:08:11;100597.56;;;10.75;100.00
12360;BME280;6244;51.460;7.090;2024-02-15T09:13:07;100597.38;;;10.78;100.00
12360;BME280;6244;51.460;7.090;2024-02-15T09:18:04;100586.88;;;10.78;100.00
12360;BME280;6244;51.460;7.090;2024-02-15T09:23:06;100589.38;;;10.81;100.00
12360;BME280;6244;51.460;7.090;2024-02-15T09:28:06;100588.25;;;10.85;100.00
12360;BME280;6244;51.460;7.090;2024-02-15T09:33:03;100581.22;;;10.85;100.00
12360;BME280;6244;51.460;7.090;2024-02-15T09:38:00;100579.91;;;10.94;100.00
12360;BME280;6244;51.460;7.090;2024-02-15T09:42:57;100579.16;;;11.08;100.00
12360;BME280;6244;51.460;7.090;2024-02-15T09:47:57;100567.47;;;11.13;100.00
12360;BME280;6244;51.460;7.090;2024-02-15T09:52:58;100567.81;;;11.23;100.00
12360;BME280;6244;51.460;7.090;2024-02-15T09:57:58;100559.66;;;11.28;100.00
12360;BME280;6244;51.460;7.090;2024-02-15T10:02:55;100568.81;;;11.36;100.00
12360;BME280;6244;51.460;7.090;2024-02-15T10:07:52;100566.47;;;11.32;100.00
12360;BME280;6244;51.460;7.090;2024-02-15T10:12:50;100578.56;;;11.34;100.00
12360;BME280;6244;51.460;7.090;2024-02-15T10:17:55;100573.06;;;11.39;100.00
12360;BME280;6244;51.460;7.090;2024-02-15T10:22:52;100580.34;;;11.50;100.00
12360;BME280;6244;51.460;7.090;2024-02-15T10:27:50;100581.25;;;11.64;100.00
12360;BME280;6244;51.460;7.090;2024-02-15T10:32:46;100565.34;;;11.67;100.00
12360;BME280;6244;51.460;7.090;2024-02-15T10:37:47;100568.88;;;11.82;100.00
12360;BME280;6244;51.460;7.090;2024-02-15T10:42:46;100571.25;;;11.87;100.00
12360;BME280;6244;51.460;7.090;2024-02-15T10:47:44;100550.97;;;11.89;100.00
12360;BME280;6244;51.460;7.090;2024-02-15T10:52:51;100539.34;;;11.93;100.00
12360;BME280;6244;51.460;7.090;2024-02-15T10:57:51;100539.72;;;12.01;100.00
12360;BME280;6244;51.460;7.090;2024-02-15T11:02:56;100545.41;;;12.09;100.00
12360;BME280;6244;51.460;7.090;2024-02-15T11:07:58;100550.47;;;12.12;100.00
12360;BME280;6244;51.460;7.090;2024-02-15T11:12:55;100542.47;;;12.14;100.00
12360;BME280;6244;51.460;7.090;2024-02-15T11:17:54;100535.00;;;12.22;100.00
12360;BME280;6244;51.460;7.090;2024-02-15T11:22:56;100524.03;;;12.29;100.00
12360;BME280;6244;51.460;7.090;2024-02-15T11:27:55;100533.59;;;12.45;100.00
12360;BME280;6244;51.460;7.090;2024-02-15T11:32:52;100531.91;;;12.44;100.00
12360;BME280;6244;51.460;7.090;2024-02-15T11:37:53;100523.38;;;12.54;100.00
12360;BME280;6244;51.460;7.090;2024-02-15T11:42:51;100520.44;;;12.59;100.00
12360;BME280;6244;51.460;7.090;2024-02-15T11:47:52;100514.88;;;12.63;100.00
12360;BME280;6244;51.460;7.090;2024-02-15T11:52:49;100507.28;;;12.73;100.00
12360;BME280;6244;51.460;7.090;2024-02-15T11:57:56;100501.44;;;12.82;100.00
12360;BME280;6244;51.460;7.090;2024-02-15T12:03:00;100498.03;;;12.94;99.57
12360;BME280;6244;51.460;7.090;2024-02-15T12:08:14;100498.94;;;13.22;97.21
12360;BME280;6244;51.460;7.090;2024-02-15T12:13:28;100479.53;;;13.50;93.95
12360;BME280;6244;51.460;7.090;2024-02-15T12:18:44;100485.63;;;13.77;93.34
12360;BME280;6244;51.460;7.090;2024-02-15T12:23:47;100476.91;;;14.02;90.16
12360;BME280;6244;51.460;7.090;2024-02-15T12:28:50;100471.94;;;14.49;87.49
12360;BME280;6244;51.460;7.090;2024-02-15T12:33:59;100459.03;;;14.57;85.34
12360;BME280;6244;51.460;7.090;2024-02-15T12:39:00;100460.38;;;14.62;84.39
12360;BME280;6244;51.460;7.090;2024-02-15T12:43:57;100450.09;;;14.83;81.20
12360;BME280;6244;51.460;7.090;2024-02-15T12:49:08;100454.09;;;15.13;79.23
12360;BME280;6244;51.460;7.090;2024-02-15T12:54:08;100428.69;;;15.23;78.00
12360;BME280;6244;51.460;7.090;2024-02-15T12:59:06;100432.28;;;15.46;76.53
12360;BME280;6244;51.460;7.090;2024-02-15T13:04:02;100426.75;;;15.49;77.63
12360;BME280;6244;51.460;7.090;2024-02-15T13:09:02;100442.41;;;15.52;76.48
12360;BME280;6244;51.460;7.090;2024-02-15T13:14:00;100424.09;;;15.49;75.40
12360;BME280;6244;51.460;7.090;2024-02-15T13:18:59;100428.00;;;15.32;76.50
12360;BME280;6244;51.460;7.090;2024-02-15T13:23:56;100404.59;;;15.74;75.17
12360;BME280;6244;51.460;7.090;2024-02-15T13:28:54;100392.00;;;15.77;74.88
12360;BME280;6244;51.460;7.090;2024-02-15T13:33:51;100395.25;;;15.81;74.75
12360;BME280;6244;51.460;7.090;2024-02-15T13:38:47;100383.94;;;15.79;74.91
12360;BME280;6244;51.460;7.090;2024-02-15T13:43:46;100382.97;;;15.80;73.95
12360;BME280;6244;51.460;7.090;2024-02-15T13:48:44;100360.72;;;15.71;73.87
12360;BME280;6244;51.460;7.090;2024-02-15T13:53:41;100366.25;;;15.79;73.86
12360;BME280;6244;51.460;7.090;2024-02-15T13:58:38;100366.25;;;15.79;73.25
12360;BME280;6244;51.460;7.090;2024-02-15T14:03:34;100359.16;;;15.69;73.23
12360;BME280;6244;51.460;7.090;2024-02-15T14:08:32;100354.88;;;15.55;73.56
12360;BME280;6244;51.460;7.090;2024-02-15T14:13:29;100356.31;;;15.48;75.22
12360;BME280;6244;51.460;7.090;2024-02-15T14:18:26;100353.41;;;15.40;74.90
12360;BME280;6244;51.460;7.090;2024-02-15T14:23:23;100341.84;;;15.30;74.31
12360;BME280;6244;51.460;7.090;2024-02-15T14:28:24;100340.88;;;15.31;74.15
12360;BME280;6244;51.460;7.090;2024-02-15T14:33:20;100337.28;;;15.32;73.82
12360;BME280;6244;51.460;7.090;2024-02-15T14:38:18;100335.47;;;15.32;74.02
12360;BME280;6244;51.460;7.090;2024-02-15T14:43:15;100328.63;;;15.30;73.87
12360;BME280;6244;51.460;7.090;2024-02-15T14:48:15;100325.28;;;15.27;74.34
12360;BME280;6244;51.460;7.090;2024-02-15T14:53:13;100334.75;;;15.30;73.37
12360;BME280;6244;51.460;7.090;2024-02-15T14:58:10;100330.59;;;15.39;73.80
12360;BME280;6244;51.460;7.090;2024-02-15T15:03:08;100327.44;;;15.34;73.63
12360;BME280;6244;51.460;7.090;2024-02-15T15:08:06;100324.53;;;15.37;74.20
12360;BME280;6244;51.460;7.090;2024-02-15T15:13:20;100303.94;;;15.07;76.83
12360;BME280;6244;51.460;7.090;2024-02-15T15:18:18;100301.53;;;15.04;75.32
12360;BME280;6244;51.460;7.090;2024-02-15T15:23:16;100287.25;;;15.06;75.70
12360;BME280;6244;51.460;7.090;2024-02-15T15:28:12;100286.53;;;15.04;74.87
12360;BME280;6244;51.460;7.090;2024-02-15T15:33:09;100281.03;;;14.83;76.20
12360;BME280;6244;51.460;7.090;2024-02-15T15:38:06;100280.56;;;14.78;75.99
12360;BME280;6244;51.460;7.090;2024-02-15T15:43:04;100269.59;;;14.72;76.81
12360;BME280;6244;51.460;7.090;2024-02-15T15:48:01;100250.97;;;14.73;75.99
12360;BME280;6244;51.460;7.090;2024-02-15T15:52:58;100231.38;;;14.40;77.45
12360;BME280;6244;51.460;7.090;2024-02-15T15:57:55;100232.78;;;14.33;77.82
12360;BME280;6244;51.460;7.090;2024-02-15T16:02:53;100259.91;;;14.35;77.45
12360;BME280;6244;51.460;7.090;2024-02-15T16:07:51;100264.31;;;14.48;76.91
12360;BME280;6244;51.460;7.090;2024-02-15T16:12:48;100267.94;;;14.34;78.28
12360;BME280;6244;51.460;7.090;2024-02-15T16:17:46;100257.84;;;14.28;78.61
12360;BME280;6244;51.460;7.090;2024-02-15T16:22:44;100262.81;;;14.20;78.50
12360;BME280;6244;51.460;7.090;2024-02-15T16:27:41;100268.03;;;14.08;79.61
12360;BME280;6244;51.460;7.090;2024-02-15T16:32:38;100269.66;;;14.22;78.44
12360;BME280;6244;51.460;7.090;2024-02-15T16:37:34;100270.97;;;14.17;77.74
12360;BME280;6244;51.460;7.090;2024-02-15T16:42:32;100262.84;;;14.07;77.43
12360;BME280;6244;51.460;7.090;2024-02-15T16:47:29;100254.47;;;13.89;78.65
12360;BME280;6244;51.460;7.090;2024-02-15T16:52:26;100246.53;;;14.02;77.70
12360;BME280;6244;51.460;7.090;2024-02-15T16:57:22;100266.47;;;14.06;77.10
12360;BME280;6244;51.460;7.090;2024-02-15T17:02:20;100265.63;;;14.05;77.11
12360;BME280;6244;51.460;7.090;2024-02-15T17:07:17;100252.84;;;13.99;76.92
12360;BME280;6244;51.460;7.090;2024-02-15T17:12:13;100251.38;;;13.95;76.75
12360;BME280;6244;51.460;7.090;2024-02-15T17:17:10;100244.53;;;13.93;76.70
12360;BME280;6244;51.460;7.090;2024-02-15T17:22:08;100231.31;;;13.69;78.15
12360;BME280;6244;51.460;7.090;2024-02-15T17:27:05;100232.03;;;13.71;77.41
12360;BME280;6244;51.460;7.090;2024-02-15T17:32:02;100227.22;;;13.65;77.43
12360;BME280;6244;51.460;7.090;2024-02-15T17:36:59;100229.19;;;13.61;77.20
12360;BME280;6244;51.460;7.090;2024-02-15T17:41:56;100232.78;;;13.60;77.12
12360;BME280;6244;51.460;7.090;2024-02-15T17:46:53;100212.75;;;13.58;76.72
12360;BME280;6244;51.460;7.090;2024-02-15T17:51:52;100209.91;;;13.48;77.93
12360;BME280;6244;51.460;7.090;2024-02-15T17:56:48;100202.00;;;13.48;77.40
12360;BME280;6244;51.460;7.090;2024-02-15T18:01:46;100190.75;;;13.46;76.91
12360;BME280;6244;51.460;7.090;2024-02-15T18:06:44;100188.47;;;13.29;78.17
12360;BME280;6244;51.460;7.090;2024-02-15T18:11:40;100176.09;;;13.42;77.10
12360;BME280;6244;51.460;7.090;2024-02-15T18:16:37;100180.72;;;13.38;76.88
12360;BME280;6244;51.460;7.090;2024-02-15T18:21:35;100177.91;;;13.16;77.67
12360;BME280;6244;51.460;7.090;2024-02-15T18:26:32;100173.59;;;13.02;79.46
12360;BME280;6244;51.460;7.090;2024-02-15T18:31:29;100169.44;;;13.11;78.51
12360;BME280;6244;51.460;7.090;2024-02-15T18:36:30;100173.38;;;13.05;78.50
12360;BME280;6244;51.460;7.090;2024-02-15T18:41:30;100176.94;;;13.04;78.26
12360;BME280;6244;51.460;7.090;2024-02-15T18:46:27;100170.63;;;12.94;78.86
12360;BME280;6244;51.460;7.090;2024-02-15T18:51:23;100171.47;;;12.94;78.90
12360;BME280;6244;51.460;7.090;2024-02-15T18:56:20;100170.28;;;12.86;78.71
12360;BME280;6244;51.460;7.090;2024-02-15T19:01:18;100175.16;;;12.79;79.05
12360;BME280;6244;51.460;7.090;2024-02-15T19:06:18;100182.00;;;12.82;78.27
12360;BME280;6244;51.460;7.090;2024-02-15T19:11:15;100173.47;;;12.91;77.97
12360;BME280;6244;51.460;7.090;2024-02-15T19:16:11;100167.75;;;12.72;79.08
12360;BME280;6244;51.460;7.090;2024-02-15T19:21:10;100165.75;;;12.75;78.61
12360;BME280;6244;51.460;7.090;2024-02-15T19:26:06;100156.81;;;12.78;78.29
12360;BME280;6244;51.460;7.090;2024-02-15T19:31:04;100158.28;;;12.69;78.09
12360;BME280;6244;51.460;7.090;2024-02-15T19:36:00;100162.38;;;12.73;77.25
12360;BME280;6244;51.460;7.090;2024-02-15T19:40:58;100164.63;;;12.79;76.23
12360;BME280;6244;51.460;7.090;2024-02-15T19:45:55;100159.25;;;12.81;77.07
12360;BME280;6244;51.460;7.090;2024-02-15T19:50:53;100165.66;;;12.89;75.25
12360;BME280;6244;51.460;7.090;2024-02-15T19:55:49;100172.53;;;13.05;73.94
12360;BME280;6244;51.460;7.090;2024-02-15T20:00:47;100174.00;;;12.96;74.39
12360;BME280;6244;51.460;7.090;2024-02-15T20:05:44;100165.13;;;12.84;75.16
12360;BME280;6244;51.460;7.090;2024-02-15T20:10:40;100152.47;;;12.89;74.76
12360;BME280;6244;51.460;7.090;2024-02-15T20:15:37;100156.06;;;12.88;74.10
12360;BME280;6244;51.460;7.090;2024-02-15T20:20:35;100151.44;;;12.67;75.79
12360;BME280;6244;51.460;7.090;2024-02-15T20:25:31;100145.66;;;12.87;74.03
12360;BME280;6244;51.460;7.090;2024-02-15T20:30:28;100137.34;;;12.80;74.04
12360;BME280;6244;51.460;7.090;2024-02-15T20:35:24;100122.91;;;12.73;74.87
12360;BME280;6244;51.460;7.090;2024-02-15T20:40:23;100134.25;;;12.61;75.54
12360;BME280;6244;51.460;7.090;2024-02-15T20:45:19;100126.59;;;12.71;74.59
12360;BME280;6244;51.460;7.090;2024-02-15T20:50:16;100119.31;;;12.87;73.22
12360;BME280;6244;51.460;7.090;2024-02-15T20:55:13;100121.31;;;12.83;73.52
12360;BME280;6244;51.460;7.090;2024-02-15T21:00:12;100104.06;;;12.92;73.73
12360;BME280;6244;51.460;7.090;2024-02-15T21:05:10;100093.06;;;12.98;72.89
12360;BME280;6244;51.460;7.090;2024-02-15T21:10:09;100098.47;;;12.84;74.00
12360;BME280;6244;51.460;7.090;2024-02-15T21:15:07;100081.50;;;12.75;74.35
12360;BME280;6244;51.460;7.090;2024-02-15T21:20:07;100090.47;;;12.73;74.65
12360;BME280;6244;51.460;7.090;2024-02-15T21:25:07;100084.13;;;12.75;74.81
12360;BME280;6244;51.460;7.090;2024-02-15T21:30:05;100076.34;;;12.86;74.14
12360;BME280;6244;51.460;7.090;2024-02-15T21:35:02;100072.88;;;12.73;74.31
12360;BME280;6244;51.460;7.090;2024-02-15T21:40:01;100081.41;;;12.77;74.29
12360;BME280;6244;51.460;7.090;2024-02-15T21:44:59;100069.41;;;12.73;74.31
12360;BME280;6244;51.460;7.090;2024-02-15T21:49:56;100063.81;;;12.77;74.11
12360;BME280;6244;51.460;7.090;2024-02-15T21:54:54;100060.44;;;12.75;74.20
12360;BME280;6244;51.460;7.090;2024-02-15T21:59:52;100060.88;;;12.69;74.24
12360;BME280;6244;51.460;7.090;2024-02-15T22:04:49;100063.75;;;12.66;74.83
12360;BME280;6244;51.460;7.090;2024-02-15T22:09:45;100059.31;;;12.67;74.42
12360;BME280;6244;51.460;7.090;2024-02-15T22:14:42;100053.41;;;12.50;75.25
12360;BME280;6244;51.460;7.090;2024-02-15T22:19:40;100049.50;;;12.69;74.50
12360;BME280;6244;51.460;7.090;2024-02-15T22:24:37;100052.44;;;12.64;74.93
12360;BME280;6244;51.460;7.090;2024-02-15T22:29:34;100043.28;;;12.82;73.65
12360;BME280;6244;51.460;7.090;2024-02-15T22:34:31;100037.78;;;12.85;73.80
12360;BME280;6244;51.460;7.090;2024-02-15T22:39:29;100044.13;;;12.70;74.36
12360;BME280;6244;51.460;7.090;2024-02-15T22:44:26;100039.81;;;12.69;74.27
12360;BME280;6244;51.460;7.090;2024-02-15T22:49:25;100040.13;;;12.64;74.84
12360;BME280;6244;51.460;7.090;2024-02-15T22:54:21;100050.56;;;12.66;75.16
12360;BME280;6244;51.460;7.090;2024-02-15T22:59:19;100043.41;;;12.68;74.57
12360;BME280;6244;51.460;7.090;2024-02-15T23:04:16;100045.94;;;12.70;75.01
12360;BME280;6244;51.460;7.090;2024-02-15T23:09:12;100045.81;;;12.84;73.56
12360;BME280;6244;51.460;7.090;2024-02-15T23:14:10;100048.22;;;12.87;73.33
12360;BME280;6244;51.460;7.090;2024-02-15T23:19:08;100037.19;;;12.82;73.60
12360;BME280;6244;51.460;7.090;2024-02-15T23:24:07;100034.00;;;12.89;72.73
12360;BME280;6244;51.460;7.090;2024-02-15T23:29:05;100029.91;;;12.85;72.86
12360;BME280;6244;51.460;7.090;2024-02-15T23:34:01;100023.69;;;12.74;73.24
12360;BME280;6244;51.460;7.090;2024-02-15T23:38:59;100042.25;;;12.72;73.31
12360;BME280;6244;51.460;7.090;2024-02-15T23:44:13;100035.38;;;12.82;72.57
12360;BME280;6244;51.460;7.090;2024-02-15T23:49:11;100040.03;;;12.79;72.42
12360;BME280;6244;51.460;7.090;2024-02-15T23:54:08;100030.63;;;12.87;71.78
12360;BME280;6244;51.460;7.090;2024-02-15T23:59:05;100031.28;;;12.91;71.61
